sensor_id;sensor_type;location;lat;lon;timestamp;P1;durP1;ratioP1;P2;durP2;ratioP2
8474;SDS011;4274;52.012;8.448;2024-03-17T00:00:43;62.23;;;15.00;;
8474;SDS011;4274;52.012;8.448;2024-03-17T00:03:08;55.50;;;12.43;;
8474;SDS011;4274;52.012;8.448;2024-03-17T00:05:37;56.20;;;12.50;;
8474;SDS011;4274;52.012;8.448;2024-03-17T00:08:03;50.40;;;10.47;;
8474;SDS011;4274;52.012;8.448;2024-03-17T00:10:30;50.70;;;8.77;;
8474;SDS011;4274;52.012;8.448;2024-03-17T00:12:56;49.50;;;8.30;;
8474;SDS011;4274;52.012;8.448;2024-03-17T00:15:22;45.23;;;5.70;;
8474;SDS011;4274;52.012;8.448;2024-03-17T00:17:48;45.63;;;4.90;;
8474;SDS011;4274;52.012;8.448;2024-03-17T00:20:14;51.10;;;5.80;;
8474;SDS011;4274;52.012;8.448;2024-03-17T00:22:47;45.27;;;4.87;;
8474;SDS011;4274;52.012;8.448;2024-03-17T00:25:14;40.90;;;5.03;;
8474;SDS011;4274;52.012;8.448;2024-03-17T00:27:40;41.90;;;4.40;;
8474;SDS011;4274;52.012;8.448;2024-03-17T00:30:08;41.50;;;5.13;;
8474;SDS011;4274;52.012;8.448;2024-03-17T00:32:37;59.83;;;6.33;;
8474;SDS011;4274;52.012;8.448;2024-03-17T00:35:05;41.07;;;5.87;;
8474;SDS011;4274;52.012;8.448;2024-03-17T00:37:31;43.63;;;5.93;;
8474;SDS011;4274;52.012;8.448;2024-03-17T00:39:57;46.07;;;5.40;;
8474;SDS011;4274;52.012;8.448;2024-03-17T00:42:24;45.13;;;5.60;;
8474;SDS011;4274;52.012;8.448;2024-03-17T00:44:49;43.90;;;4.40;;
8474;SDS011;4274;52.012;8.448;2024-03-17T00:47:15;41.20;;;5.07;;
8474;SDS011;4274;52.012;8.448;2024-03-17T00:49:41;40.53;;;4.60;;
8474;SDS011;4274;52.012;8.448;2024-03-17T00:52:06;41.70;;;4.70;;
8474;SDS011;4274;52.012;8.448;2024-03-17T00:54:32;45.20;;;4.63;;
8474;SDS011;4274;52.012;8.448;2024-03-17T00:56:57;45.47;;;4.70;;
8474;SDS011;4274;52.012;8.448;2024-03-17T00:59:23;40.67;;;4.70;;
8474;SDS011;4274;52.012;8.448;2024-03-17T01:01:49;46.70;;;6.30;;
8474;SDS011;4274;52.012;8.448;2024-03-17T01:04:14;44.33;;;5.13;;
8474;SDS011;4274;52.012;8.448;2024-03-17T01:06:40;43.83;;;5.23;;
8474;SDS011;4274;52.012;8.448;2024-03-17T01:09:06;41.87;;;4.53;;
8474;SDS011;4274;52.012;8.448;2024-03-17T01:11:33;41.70;;;4.53;;
8474;SDS011;4274;52.012;8.448;2024-03-17T01:13:58;43.63;;;5.10;;
8474;SDS011;4274;52.012;8.448;2024-03-17T01:16:24;55.90;;;7.20;;
8474;SDS011;4274;52.012;8.448;2024-03-17T01:18:49;49.63;;;6.27;;
8474;SDS011;4274;52.012;8.448;2024-03-17T01:21:15;44.63;;;6.57;;
8474;SDS011;4274;52.012;8.448;2024-03-17T01:23:41;44.07;;;6.00;;
8474;SDS011;4274;52.012;8.448;2024-03-17T01:26:06;42.43;;;6.80;;
8474;SDS011;4274;52.012;8.448;2024-03-17T01:28:32;47.07;;;7.20;;
8474;SDS011;4274;52.012;8.448;2024-03-17T01:30:57;45.60;;;7.20;;
8474;SDS011;4274;52.012;8.448;2024-03-17T01:33:23;45.93;;;6.47;;
8474;SDS011;4274;52.012;8.448;2024-03-17T01:35:48;43.77;;;5.97;;
8474;SDS011;4274;52.012;8.448;2024-03-17T01:38:14;45.70;;;5.23;;
8474;SDS011;4274;52.012;8.448;2024-03-17T01:40:40;42.43;;;5.20;;
8474;SDS011;4274;52.012;8.448;2024-03-17T01:43:08;41.00;;;4.70;;
8474;SDS011;4274;52.012;8.448;2024-03-17T01:45:36;41.87;;;4.90;;
8474;SDS011;4274;52.012;8.448;2024-03-17T01:48:02;48.23;;;6.10;;
8474;SDS011;4274;52.012;8.448;2024-03-17T01:50:31;44.87;;;6.77;;
8474;SDS011;4274;52.012;8.448;2024-03-17T01:53:05;44.50;;;6.40;;
8474;SDS011;4274;52.012;8.448;2024-03-17T01:55:36;52.23;;;7.30;;
8474;SDS011;4274;52.012;8.448;2024-03-17T01:58:03;46.90;;;6.53;;
8474;SDS011;4274;52.012;8.448;2024-03-17T02:00:32;41.73;;;6.10;;
8474;SDS011;4274;52.012;8.448;2024-03-17T02:02:59;41.50;;;5.53;;
8474;SDS011;4274;52.012;8.448;2024-03-17T02:05:25;46.47;;;5.60;;
8474;SDS011;4274;52.012;8.448;2024-03-17T02:07:50;48.80;;;5.00;;
8474;SDS011;4274;52.012;8.448;2024-03-17T02:10:16;59.90;;;6.93;;
8474;SDS011;4274;52.012;8.448;2024-03-17T02:12:41;47.97;;;7.13;;
8474;SDS011;4274;52.012;8.448;2024-03-17T02:15:07;45.37;;;8.27;;
8474;SDS011;4274;52.012;8.448;2024-03-17T02:17:33;51.67;;;7.63;;
8474;SDS011;4274;52.012;8.448;2024-03-17T02:19:59;46.90;;;6.50;;
8474;SDS011;4274;52.012;8.448;2024-03-17T02:22:25;49.37;;;6.83;;
8474;SDS011;4274;52.012;8.448;2024-03-17T02:24:53;44.33;;;6.33;;
8474;SDS011;4274;52.012;8.448;2024-03-17T02:27:18;42.30;;;5.40;;
8474;SDS011;4274;52.012;8.448;2024-03-17T02:29:44;43.90;;;6.00;;
8474;SDS011;4274;52.012;8.448;2024-03-17T02:32:10;41.90;;;5.30;;
8474;SDS011;4274;52.012;8.448;2024-03-17T02:34:36;45.60;;;5.10;;
8474;SDS011;4274;52.012;8.448;2024-03-17T02:37:03;45.30;;;6.10;;
8474;SDS011;4274;52.012;8.448;2024-03-17T02:39:31;43.20;;;5.63;;
8474;SDS011;4274;52.012;8.448;2024-03-17T02:41:56;46.10;;;5.23;;
8474;SDS011;4274;52.012;8.448;2024-03-17T02:44:22;43.00;;;4.50;;
8474;SDS011;4274;52.012;8.448;2024-03-17T02:46:47;50.23;;;5.10;;
8474;SDS011;4274;52.012;8.448;2024-03-17T02:49:13;44.10;;;5.60;;
8474;SDS011;4274;52.012;8.448;2024-03-17T02:51:39;43.50;;;5.57;;
8474;SDS011;4274;52.012;8.448;2024-03-17T02:54:04;42.87;;;5.33;;
8474;SDS011;4274;52.012;8.448;2024-03-17T02:56:31;42.17;;;4.93;;
8474;SDS011;4274;52.012;8.448;2024-03-17T02:58:56;41.10;;;5.07;;
8474;SDS011;4274;52.012;8.448;2024-03-17T03:01:22;40.87;;;5.17;;
8474;SDS011;4274;52.012;8.448;2024-03-17T03:03:48;42.27;;;5.13;;
8474;SDS011;4274;52.012;8.448;2024-03-17T03:06:14;44.50;;;4.60;;
8474;SDS011;4274;52.012;8.448;2024-03-17T03:08:42;41.17;;;5.10;;
8474;SDS011;4274;52.012;8.448;2024-03-17T03:11:09;45.37;;;5.17;;
8474;SDS011;4274;52.012;8.448;2024-03-17T03:13:37;41.93;;;4.80;;
8474;SDS011;4274;52.012;8.448;2024-03-17T03:16:07;42.63;;;4.70;;
8474;SDS011;4274;52.012;8.448;2024-03-17T03:18:35;47.73;;;4.17;;
8474;SDS011;4274;52.012;8.448;2024-03-17T03:21:01;47.33;;;5.50;;
8474;SDS011;4274;52.012;8.448;2024-03-17T03:23:26;47.60;;;4.50;;
8474;SDS011;4274;52.012;8.448;2024-03-17T03:25:55;43.87;;;4.90;;
8474;SDS011;4274;52.012;8.448;2024-03-17T03:28:22;46.47;;;5.07;;
8474;SDS011;4274;52.012;8.448;2024-03-17T03:30:48;46.20;;;4.60;;
8474;SDS011;4274;52.012;8.448;2024-03-17T03:33:14;43.03;;;4.37;;
8474;SDS011;4274;52.012;8.448;2024-03-17T03:35:39;46.07;;;5.10;;
8474;SDS011;4274;52.012;8.448;2024-03-17T03:38:05;43.67;;;5.03;;
8474;SDS011;4274;52.012;8.448;2024-03-17T03:40:31;40.93;;;4.27;;
8474;SDS011;4274;52.012;8.448;2024-03-17T03:42:57;44.40;;;4.70;;
8474;SDS011;4274;52.012;8.448;2024-03-17T03:45:23;48.13;;;5.20;;
8474;SDS011;4274;52.012;8.448;2024-03-17T03:47:49;40.53;;;3.80;;
8474;SDS011;4274;52.012;8.448;2024-03-17T03:50:15;45.43;;;5.77;;
8474;SDS011;4274;52.012;8.448;2024-03-17T03:52:44;42.60;;;4.40;;
8474;SDS011;4274;52.012;8.448;2024-03-17T03:55:11;48.30;;;5.17;;
8474;SDS011;4274;52.012;8.448;2024-03-17T03:57:40;41.00;;;4.90;;
8474;SDS011;4274;52.012;8.448;2024-03-17T04:00:13;46.03;;;5.07;;
8474;SDS011;4274;52.012;8.448;2024-03-17T04:02:46;47.37;;;4.30;;
8474;SDS011;4274;52.012;8.448;2024-03-17T04:05:16;41.77;;;3.80;;
8474;SDS011;4274;52.012;8.448;2024-03-17T04:07:45;46.50;;;5.40;;
8474;SDS011;4274;52.012;8.448;2024-03-17T04:10:12;42.07;;;4.50;;
8474;SDS011;4274;52.012;8.448;2024-03-17T04:12:39;44.63;;;4.63;;
8474;SDS011;4274;52.012;8.448;2024-03-17T04:15:05;40.13;;;4.40;;
8474;SDS011;4274;52.012;8.448;2024-03-17T04:17:31;40.70;;;4.33;;
8474;SDS011;4274;52.012;8.448;2024-03-17T04:19:58;40.40;;;4.53;;
8474;SDS011;4274;52.012;8.448;2024-03-17T04:22:24;40.27;;;4.10;;
8474;SDS011;4274;52.012;8.448;2024-03-17T04:24:50;40.50;;;4.03;;
8474;SDS011;4274;52.012;8.448;2024-03-17T04:27:19;48.47;;;4.10;;
8474;SDS011;4274;52.012;8.448;2024-03-17T04:29:48;42.43;;;4.50;;
8474;SDS011;4274;52.012;8.448;2024-03-17T04:32:14;46.33;;;4.50;;
8474;SDS011;4274;52.012;8.448;2024-03-17T04:34:40;44.60;;;4.23;;
8474;SDS011;4274;52.012;8.448;2024-03-17T04:37:06;49.67;;;4.60;;
8474;SDS011;4274;52.012;8.448;2024-03-17T04:39:31;41.33;;;3.47;;
8474;SDS011;4274;52.012;8.448;2024-03-17T04:41:57;46.83;;;4.40;;
8474;SDS011;4274;52.012;8.448;2024-03-17T04:44:22;44.33;;;5.03;;
8474;SDS011;4274;52.012;8.448;2024-03-17T04:46:48;43.80;;;4.30;;
8474;SDS011;4274;52.012;8.448;2024-03-17T04:49:14;46.33;;;4.23;;
8474;SDS011;4274;52.012;8.448;2024-03-17T04:51:39;41.50;;;4.93;;
8474;SDS011;4274;52.012;8.448;2024-03-17T04:54:05;40.10;;;4.17;;
8474;SDS011;4274;52.012;8.448;2024-03-17T04:56:33;40.60;;;4.97;;
8474;SDS011;4274;52.012;8.448;2024-03-17T04:58:59;43.63;;;4.93;;
8474;SDS011;4274;52.012;8.448;2024-03-17T05:01:24;44.17;;;5.57;;
8474;SDS011;4274;52.012;8.448;2024-03-17T05:03:53;52.63;;;6.13;;
8474;SDS011;4274;52.012;8.448;2024-03-17T05:06:18;44.40;;;6.27;;
8474;SDS011;4274;52.012;8.448;2024-03-17T05:08:44;52.37;;;6.70;;
8474;SDS011;4274;52.012;8.448;2024-03-17T05:11:10;50.73;;;5.90;;
8474;SDS011;4274;52.012;8.448;2024-03-17T05:13:36;57.93;;;6.10;;
8474;SDS011;4274;52.012;8.448;2024-03-17T05:16:05;52.20;;;6.20;;
8474;SDS011;4274;52.012;8.448;2024-03-17T05:18:31;46.13;;;6.80;;
8474;SDS011;4274;52.012;8.448;2024-03-17T05:21:02;49.30;;;6.20;;
8474;SDS011;4274;52.012;8.448;2024-03-17T05:23:32;43.97;;;7.50;;
8474;SDS011;4274;52.012;8.448;2024-03-17T05:25:59;44.07;;;7.40;;
8474;SDS011;4274;52.012;8.448;2024-03-17T05:28:26;47.87;;;7.53;;
8474;SDS011;4274;52.012;8.448;2024-03-17T05:30:52;44.90;;;7.37;;
8474;SDS011;4274;52.012;8.448;2024-03-17T05:33:18;50.93;;;8.03;;
8474;SDS011;4274;52.012;8.448;2024-03-17T05:35:53;46.43;;;7.07;;
8474;SDS011;4274;52.012;8.448;2024-03-17T05:38:20;45.93;;;6.60;;
8474;SDS011;4274;52.012;8.448;2024-03-17T05:40:57;47.37;;;7.90;;
8474;SDS011;4274;52.012;8.448;2024-03-17T05:43:27;45.77;;;7.07;;
8474;SDS011;4274;52.012;8.448;2024-03-17T05:46:03;50.23;;;7.53;;
8474;SDS011;4274;52.012;8.448;2024-03-17T05:48:35;48.67;;;7.70;;
8474;SDS011;4274;52.012;8.448;2024-03-17T05:51:07;57.10;;;8.07;;
8474;SDS011;4274;52.012;8.448;2024-03-17T05:53:37;44.97;;;6.90;;
8474;SDS011;4274;52.012;8.448;2024-03-17T05:56:05;45.43;;;7.30;;
8474;SDS011;4274;52.012;8.448;2024-03-17T05:58:32;46.50;;;7.97;;
8474;SDS011;4274;52.012;8.448;2024-03-17T06:01:01;45.47;;;7.57;;
8474;SDS011;4274;52.012;8.448;2024-03-17T06:03:27;48.70;;;7.87;;
8474;SDS011;4274;52.012;8.448;2024-03-17T06:05:53;50.17;;;7.10;;
8474;SDS011;4274;52.012;8.448;2024-03-17T06:08:18;48.83;;;7.60;;
8474;SDS011;4274;52.012;8.448;2024-03-17T06:10:45;45.70;;;7.10;;
8474;SDS011;4274;52.012;8.448;2024-03-17T06:13:11;47.23;;;8.00;;
8474;SDS011;4274;52.012;8.448;2024-03-17T06:15:38;45.00;;;7.00;;
8474;SDS011;4274;52.012;8.448;2024-03-17T06:18:05;47.50;;;7.40;;
8474;SDS011;4274;52.012;8.448;2024-03-17T06:20:34;43.90;;;7.10;;
8474;SDS011;4274;52.012;8.448;2024-03-17T06:22:59;43.83;;;7.00;;
8474;SDS011;4274;52.012;8.448;2024-03-17T06:25:25;45.60;;;6.83;;
8474;SDS011;4274;52.012;8.448;2024-03-17T06:27:51;46.43;;;6.50;;
8474;SDS011;4274;52.012;8.448;2024-03-17T06:30:17;47.00;;;6.60;;
8474;SDS011;4274;52.012;8.448;2024-03-17T06:32:43;50.07;;;6.70;;
8474;SDS011;4274;52.012;8.448;2024-03-17T06:35:12;44.07;;;6.77;;
8474;SDS011;4274;52.012;8.448;2024-03-17T06:37:43;46.63;;;6.97;;
8474;SDS011;4274;52.012;8.448;2024-03-17T06:40:12;51.53;;;6.70;;
8474;SDS011;4274;52.012;8.448;2024-03-17T06:42:39;45.30;;;6.40;;
8474;SDS011;4274;52.012;8.448;2024-03-17T06:45:05;48.87;;;6.30;;
8474;SDS011;4274;52.012;8.448;2024-03-17T06:47:33;45.20;;;6.07;;
8474;SDS011;4274;52.012;8.448;2024-03-17T06:50:02;45.43;;;6.27;;
8474;SDS011;4274;52.012;8.448;2024-03-17T06:52:34;47.73;;;7.30;;
8474;SDS011;4274;52.012;8.448;2024-03-17T06:55:01;48.80;;;7.33;;
8474;SDS011;4274;52.012;8.448;2024-03-17T06:57:26;55.03;;;7.47;;
8474;SDS011;4274;52.012;8.448;2024-03-17T06:59:52;49.73;;;6.90;;
8474;SDS011;4274;52.012;8.448;2024-03-17T07:02:18;49.97;;;6.63;;
8474;SDS011;4274;52.012;8.448;2024-03-17T07:04:45;47.93;;;6.90;;
8474;SDS011;4274;52.012;8.448;2024-03-17T07:07:11;47.13;;;6.60;;
8474;SDS011;4274;52.012;8.448;2024-03-17T07:09:38;45.50;;;5.93;;
8474;SDS011;4274;52.012;8.448;2024-03-17T07:12:07;49.20;;;6.53;;
8474;SDS011;4274;52.012;8.448;2024-03-17T07:14:34;50.13;;;7.77;;
8474;SDS011;4274;52.012;8.448;2024-03-17T07:16:59;48.07;;;6.47;;
8474;SDS011;4274;52.012;8.448;2024-03-17T07:19:25;47.90;;;6.60;;
8474;SDS011;4274;52.012;8.448;2024-03-17T07:21:51;47.70;;;6.57;;
8474;SDS011;4274;52.012;8.448;2024-03-17T07:24:16;46.10;;;6.00;;
8474;SDS011;4274;52.012;8.448;2024-03-17T07:26:42;51.47;;;7.00;;
8474;SDS011;4274;52.012;8.448;2024-03-17T07:29:07;46.10;;;7.00;;
8474;SDS011;4274;52.012;8.448;2024-03-17T07:31:33;52.90;;;7.00;;
8474;SDS011;4274;52.012;8.448;2024-03-17T07:33:59;47.07;;;6.83;;
8474;SDS011;4274;52.012;8.448;2024-03-17T07:36:25;49.87;;;7.20;;
8474;SDS011;4274;52.012;8.448;2024-03-17T07:38:50;45.50;;;6.77;;
8474;SDS011;4274;52.012;8.448;2024-03-17T07:41:17;46.03;;;6.80;;
8474;SDS011;4274;52.012;8.448;2024-03-17T07:43:44;47.60;;;6.67;;
8474;SDS011;4274;52.012;8.448;2024-03-17T07:46:11;50.83;;;6.90;;
8474;SDS011;4274;52.012;8.448;2024-03-17T07:48:37;48.40;;;7.37;;
8474;SDS011;4274;52.012;8.448;2024-03-17T07:51:05;48.53;;;7.23;;
8474;SDS011;4274;52.012;8.448;2024-03-17T07:53:35;49.10;;;7.60;;
8474;SDS011;4274;52.012;8.448;2024-03-17T07:56:08;53.10;;;7.33;;
8474;SDS011;4274;52.012;8.448;2024-03-17T07:58:35;52.13;;;7.80;;
8474;SDS011;4274;52.012;8.448;2024-03-17T08:01:04;53.60;;;7.73;;
8474;SDS011;4274;52.012;8.448;2024-03-17T08:03:35;49.77;;;8.37;;
8474;SDS011;4274;52.012;8.448;2024-03-17T08:06:02;48.90;;;7.30;;
8474;SDS011;4274;52.012;8.448;2024-03-17T08:08:30;51.00;;;7.17;;
8474;SDS011;4274;52.012;8.448;2024-03-17T08:10:56;49.17;;;6.67;;
8474;SDS011;4274;52.012;8.448;2024-03-17T08:13:22;51.37;;;8.07;;
8474;SDS011;4274;52.012;8.448;2024-03-17T08:15:55;49.47;;;7.70;;
8474;SDS011;4274;52.012;8.448;2024-03-17T08:18:31;51.13;;;7.63;;
8474;SDS011;4274;52.012;8.448;2024-03-17T08:21:00;48.60;;;7.07;;
8474;SDS011;4274;52.012;8.448;2024-03-17T08:23:29;49.97;;;7.37;;
8474;SDS011;4274;52.012;8.448;2024-03-17T08:25:55;51.07;;;7.60;;
8474;SDS011;4274;52.012;8.448;2024-03-17T08:28:22;51.80;;;6.95;;
8474;SDS011;4274;52.012;8.448;2024-03-17T08:30:55;54.80;;;8.93;;
8474;SDS011;4274;52.012;8.448;2024-03-17T08:33:22;50.23;;;8.60;;
8474;SDS011;4274;52.012;8.448;2024-03-17T08:35:54;50.83;;;7.40;;
8474;SDS011;4274;52.012;8.448;2024-03-17T08:38:41;50.50;;;7.87;;
8474;SDS011;4274;52.012;8.448;2024-03-17T08:41:07;53.77;;;8.27;;
8474;SDS011;4274;52.012;8.448;2024-03-17T08:43:35;51.53;;;7.60;;
8474;SDS011;4274;52.012;8.448;2024-03-17T08:46:02;56.80;;;8.20;;
8474;SDS011;4274;52.012;8.448;2024-03-17T08:48:31;54.57;;;8.83;;
8474;SDS011;4274;52.012;8.448;2024-03-17T08:50:58;53.93;;;7.60;;
8474;SDS011;4274;52.012;8.448;2024-03-17T08:53:25;53.07;;;8.07;;
8474;SDS011;4274;52.012;8.448;2024-03-17T08:55:51;53.43;;;8.30;;
8474;SDS011;4274;52.012;8.448;2024-03-17T08:58:18;51.20;;;8.37;;
8474;SDS011;4274;52.012;8.448;2024-03-17T09:00:44;57.03;;;8.43;;
8474;SDS011;4274;52.012;8.448;2024-03-17T09:03:10;54.73;;;9.20;;
8474;SDS011;4274;52.012;8.448;2024-03-17T09:05:37;51.17;;;6.80;;
8474;SDS011;4274;52.012;8.448;2024-03-17T09:08:06;54.53;;;7.40;;
8474;SDS011;4274;52.012;8.448;2024-03-17T09:10:38;50.60;;;8.30;;
8474;SDS011;4274;52.012;8.448;2024-03-17T09:13:10;51.07;;;7.30;;
8474;SDS011;4274;52.012;8.448;2024-03-17T09:15:58;51.30;;;7.73;;
8474;SDS011;4274;52.012;8.448;2024-03-17T09:18:25;52.17;;;7.03;;
8474;SDS011;4274;52.012;8.448;2024-03-17T09:21:02;51.20;;;6.80;;
8474;SDS011;4274;52.012;8.448;2024-03-17T09:23:35;55.80;;;7.67;;
8474;SDS011;4274;52.012;8.448;2024-03-17T09:26:03;56.33;;;7.93;;
8474;SDS011;4274;52.012;8.448;2024-03-17T09:28:30;53.47;;;6.53;;
8474;SDS011;4274;52.012;8.448;2024-03-17T09:30:57;52.23;;;8.00;;
8474;SDS011;4274;52.012;8.448;2024-03-17T09:33:23;53.70;;;6.90;;
8474;SDS011;4274;52.012;8.448;2024-03-17T09:36:24;54.03;;;9.63;;
8474;SDS011;4274;52.012;8.448;2024-03-17T09:38:43;50.30;;;7.37;;
8474;SDS011;4274;52.012;8.448;2024-03-17T09:41:19;53.97;;;8.00;;
8474;SDS011;4274;52.012;8.448;2024-03-17T09:43:54;50.50;;;7.67;;
8474;SDS011;4274;52.012;8.448;2024-03-17T09:46:20;52.30;;;7.77;;
8474;SDS011;4274;52.012;8.448;2024-03-17T09:48:48;51.20;;;6.60;;
8474;SDS011;4274;52.012;8.448;2024-03-17T09:51:18;51.80;;;7.10;;
8474;SDS011;4274;52.012;8.448;2024-03-17T09:53:48;49.90;;;7.53;;
8474;SDS011;4274;52.012;8.448;2024-03-17T09:56:15;50.47;;;6.90;;
8474;SDS011;4274;52.012;8.448;2024-03-17T09:58:43;47.20;;;5.20;;
8474;SDS011;4274;52.012;8.448;2024-03-17T10:01:16;48.90;;;6.17;;
8474;SDS011;4274;52.012;8.448;2024-03-17T10:03:43;51.03;;;7.13;;
8474;SDS011;4274;52.012;8.448;2024-03-17T10:06:14;51.10;;;7.60;;
8474;SDS011;4274;52.012;8.448;2024-03-17T10:08:41;49.67;;;7.23;;
8474;SDS011;4274;52.012;8.448;2024-03-17T10:11:08;52.60;;;7.37;;
8474;SDS011;4274;52.012;8.448;2024-03-17T10:13:34;48.80;;;7.20;;
8474;SDS011;4274;52.012;8.448;2024-03-17T10:15:59;52.80;;;8.00;;
8474;SDS011;4274;52.012;8.448;2024-03-17T10:18:25;51.20;;;7.50;;
8474;SDS011;4274;52.012;8.448;2024-03-17T10:20:50;51.20;;;8.10;;
8474;SDS011;4274;52.012;8.448;2024-03-17T10:23:20;48.93;;;6.53;;
8474;SDS011;4274;52.012;8.448;2024-03-17T10:25:45;51.90;;;7.43;;
8474;SDS011;4274;52.012;8.448;2024-03-17T10:28:12;52.13;;;7.20;;
8474;SDS011;4274;52.012;8.448;2024-03-17T10:30:38;48.80;;;6.60;;
8474;SDS011;4274;52.012;8.448;2024-03-17T10:33:05;51.40;;;6.83;;
8474;SDS011;4274;52.012;8.448;2024-03-17T10:35:37;54.00;;;7.30;;
8474;SDS011;4274;52.012;8.448;2024-03-17T10:38:06;52.73;;;7.40;;
8474;SDS011;4274;52.012;8.448;2024-03-17T10:40:34;51.40;;;7.80;;
8474;SDS011;4274;52.012;8.448;2024-03-17T10:43:03;50.10;;;7.47;;
8474;SDS011;4274;52.012;8.448;2024-03-17T10:45:29;47.20;;;6.00;;
8474;SDS011;4274;52.012;8.448;2024-03-17T10:48:00;51.50;;;7.00;;
8474;SDS011;4274;52.012;8.448;2024-03-17T10:50:29;50.53;;;7.43;;
8474;SDS011;4274;52.012;8.448;2024-03-17T10:53:00;50.73;;;6.57;;
8474;SDS011;4274;52.012;8.448;2024-03-17T10:55:29;50.83;;;6.93;;
8474;SDS011;4274;52.012;8.448;2024-03-17T10:58:01;48.40;;;6.90;;
8474;SDS011;4274;52.012;8.448;2024-03-17T11:00:29;51.90;;;6.13;;
8474;SDS011;4274;52.012;8.448;2024-03-17T11:02:56;48.50;;;5.83;;
8474;SDS011;4274;52.012;8.448;2024-03-17T11:05:24;50.40;;;7.07;;
8474;SDS011;4274;52.012;8.448;2024-03-17T11:07:54;51.20;;;6.70;;
8474;SDS011;4274;52.012;8.448;2024-03-17T11:10:26;49.20;;;7.13;;
8474;SDS011;4274;52.012;8.448;2024-03-17T11:12:58;51.30;;;7.13;;
8474;SDS011;4274;52.012;8.448;2024-03-17T11:20:35;51.90;;;8.00;;
8474;SDS011;4274;52.012;8.448;2024-03-17T11:23:02;50.67;;;8.20;;
8474;SDS011;4274;52.012;8.448;2024-03-17T11:27:59;52.03;;;7.13;;
8474;SDS011;4274;52.012;8.448;2024-03-17T11:39:02;48.97;;;6.43;;
8474;SDS011;4274;52.012;8.448;2024-03-17T11:46:54;51.00;;;8.03;;
8474;SDS011;4274;52.012;8.448;2024-03-17T11:49:32;51.73;;;7.70;;
8474;SDS011;4274;52.012;8.448;2024-03-17T11:52:02;50.27;;;7.03;;
8474;SDS011;4274;52.012;8.448;2024-03-17T11:54:32;50.23;;;6.80;;
8474;SDS011;4274;52.012;8.448;2024-03-17T11:57:01;49.80;;;5.87;;
8474;SDS011;4274;52.012;8.448;2024-03-17T11:59:27;49.10;;;6.30;;
8474;SDS011;4274;52.012;8.448;2024-03-17T12:01:54;48.20;;;5.90;;
8474;SDS011;4274;52.012;8.448;2024-03-17T12:04:20;49.47;;;5.83;;
8474;SDS011;4274;52.012;8.448;2024-03-17T12:06:59;47.20;;;5.70;;
8474;SDS011;4274;52.012;8.448;2024-03-17T12:09:29;48.50;;;5.57;;
8474;SDS011;4274;52.012;8.448;2024-03-17T12:12:05;47.87;;;6.10;;
8474;SDS011;4274;52.012;8.448;2024-03-17T12:14:39;48.73;;;5.67;;
8474;SDS011;4274;52.012;8.448;2024-03-17T12:17:06;47.40;;;6.00;;
8474;SDS011;4274;52.012;8.448;2024-03-17T12:19:33;50.17;;;6.83;;
8474;SDS011;4274;52.012;8.448;2024-03-17T12:21:59;51.20;;;7.53;;
8474;SDS011;4274;52.012;8.448;2024-03-17T12:24:30;48.77;;;6.20;;
8474;SDS011;4274;52.012;8.448;2024-03-17T12:26:57;51.00;;;7.20;;
8474;SDS011;4274;52.012;8.448;2024-03-17T12:32:10;52.47;;;6.38;;
8474;SDS011;4274;52.012;8.448;2024-03-17T12:34:37;49.83;;;6.63;;
8474;SDS011;4274;52.012;8.448;2024-03-17T12:37:03;48.10;;;6.43;;
8474;SDS011;4274;52.012;8.448;2024-03-17T12:39:33;49.23;;;6.60;;
8474;SDS011;4274;52.012;8.448;2024-03-17T12:44:29;49.30;;;7.50;;
8474;SDS011;4274;52.012;8.448;2024-03-17T12:47:02;51.53;;;8.70;;
8474;SDS011;4274;52.012;8.448;2024-03-17T12:49:29;51.20;;;8.17;;
8474;SDS011;4274;52.012;8.448;2024-03-17T12:51:56;50.97;;;8.70;;
8474;SDS011;4274;52.012;8.448;2024-03-17T12:54:25;50.63;;;8.03;;
8474;SDS011;4274;52.012;8.448;2024-03-17T12:57:02;50.73;;;8.60;;
8474;SDS011;4274;52.012;8.448;2024-03-17T12:59:48;52.27;;;9.63;;
8474;SDS011;4274;52.012;8.448;2024-03-17T13:02:31;52.50;;;8.30;;
8474;SDS011;4274;52.012;8.448;2024-03-17T13:05:07;55.07;;;9.43;;
8474;SDS011;4274;52.012;8.448;2024-03-17T13:07:41;50.97;;;8.30;;
8474;SDS011;4274;52.012;8.448;2024-03-17T13:10:06;58.00;;;10.87;;
8474;SDS011;4274;52.012;8.448;2024-03-17T13:12:33;54.17;;;11.17;;
8474;SDS011;4274;52.012;8.448;2024-03-17T13:14:59;53.27;;;10.50;;
8474;SDS011;4274;52.012;8.448;2024-03-17T13:17:25;54.27;;;9.67;;
8474;SDS011;4274;52.012;8.448;2024-03-17T13:19:51;53.07;;;10.90;;
8474;SDS011;4274;52.012;8.448;2024-03-17T13:22:16;51.63;;;9.20;;
8474;SDS011;4274;52.012;8.448;2024-03-17T13:24:42;50.60;;;9.40;;
8474;SDS011;4274;52.012;8.448;2024-03-17T13:27:07;52.97;;;9.03;;
8474;SDS011;4274;52.012;8.448;2024-03-17T13:29:33;54.40;;;9.73;;
8474;SDS011;4274;52.012;8.448;2024-03-17T13:32:03;54.73;;;8.87;;
8474;SDS011;4274;52.012;8.448;2024-03-17T13:34:29;55.03;;;9.27;;
8474;SDS011;4274;52.012;8.448;2024-03-17T13:36:55;53.07;;;9.00;;
8474;SDS011;4274;52.012;8.448;2024-03-17T13:39:20;50.70;;;9.10;;
8474;SDS011;4274;52.012;8.448;2024-03-17T13:41:47;53.70;;;8.57;;
8474;SDS011;4274;52.012;8.448;2024-03-17T13:44:14;54.65;;;8.95;;
8474;SDS011;4274;52.012;8.448;2024-03-17T13:46:40;51.43;;;8.60;;
8474;SDS011;4274;52.012;8.448;2024-03-17T13:49:09;50.57;;;8.90;;
8474;SDS011;4274;52.012;8.448;2024-03-17T13:51:35;52.37;;;7.90;;
8474;SDS011;4274;52.012;8.448;2024-03-17T13:54:00;54.23;;;8.40;;
8474;SDS011;4274;52.012;8.448;2024-03-17T13:56:27;52.60;;;8.97;;
8474;SDS011;4274;52.012;8.448;2024-03-17T13:58:52;50.23;;;8.50;;
8474;SDS011;4274;52.012;8.448;2024-03-17T14:01:18;50.07;;;8.07;;
8474;SDS011;4274;52.012;8.448;2024-03-17T14:03:43;51.63;;;9.03;;
8474;SDS011;4274;52.012;8.448;2024-03-17T14:06:10;51.40;;;7.73;;
8474;SDS011;4274;52.012;8.448;2024-03-17T14:08:36;51.90;;;8.40;;
8474;SDS011;4274;52.012;8.448;2024-03-17T14:11:02;52.07;;;9.20;;
8474;SDS011;4274;52.012;8.448;2024-03-17T14:13:29;48.37;;;7.47;;
8474;SDS011;4274;52.012;8.448;2024-03-17T14:15:57;49.60;;;7.63;;
8474;SDS011;4274;52.012;8.448;2024-03-17T14:18:23;50.93;;;7.47;;
8474;SDS011;4274;52.012;8.448;2024-03-17T14:20:49;52.70;;;7.80;;
8474;SDS011;4274;52.012;8.448;2024-03-17T14:23:15;50.83;;;8.50;;
8474;SDS011;4274;52.012;8.448;2024-03-17T14:25:41;51.13;;;7.90;;
8474;SDS011;4274;52.012;8.448;2024-03-17T14:28:07;51.40;;;8.33;;
8474;SDS011;4274;52.012;8.448;2024-03-17T14:30:33;50.27;;;7.90;;
8474;SDS011;4274;52.012;8.448;2024-03-17T14:32:59;49.80;;;8.07;;
8474;SDS011;4274;52.012;8.448;2024-03-17T14:35:25;48.67;;;7.60;;
8474;SDS011;4274;52.012;8.448;2024-03-17T14:37:52;52.07;;;7.50;;
8474;SDS011;4274;52.012;8.448;2024-03-17T14:40:18;52.67;;;9.00;;
8474;SDS011;4274;52.012;8.448;2024-03-17T14:42:53;51.73;;;8.27;;
8474;SDS011;4274;52.012;8.448;2024-03-17T14:45:20;54.05;;;7.20;;
8474;SDS011;4274;52.012;8.448;2024-03-17T14:47:48;51.67;;;6.53;;
8474;SDS011;4274;52.012;8.448;2024-03-17T14:50:14;48.80;;;7.10;;
8474;SDS011;4274;52.012;8.448;2024-03-17T14:52:41;53.80;;;9.53;;
8474;SDS011;4274;52.012;8.448;2024-03-17T14:55:07;50.77;;;8.20;;
8474;SDS011;4274;52.012;8.448;2024-03-17T14:57:39;50.60;;;9.60;;
8474;SDS011;4274;52.012;8.448;2024-03-17T15:00:09;52.10;;;8.00;;
8474;SDS011;4274;52.012;8.448;2024-03-17T15:02:41;46.90;;;7.45;;
8474;SDS011;4274;52.012;8.448;2024-03-17T15:05:13;50.60;;;9.60;;
8474;SDS011;4274;52.012;8.448;2024-03-17T15:07:46;47.97;;;7.10;;
8474;SDS011;4274;52.012;8.448;2024-03-17T15:10:13;51.97;;;6.60;;
8474;SDS011;4274;52.012;8.448;2024-03-17T15:12:49;52.17;;;7.47;;
8474;SDS011;4274;52.012;8.448;2024-03-17T15:15:15;47.67;;;6.67;;
8474;SDS011;4274;52.012;8.448;2024-03-17T15:17:41;48.60;;;6.90;;
8474;SDS011;4274;52.012;8.448;2024-03-17T15:20:09;50.63;;;6.70;;
8474;SDS011;4274;52.012;8.448;2024-03-17T15:22:42;50.90;;;7.80;;
8474;SDS011;4274;52.012;8.448;2024-03-17T15:25:09;50.57;;;7.40;;
8474;SDS011;4274;52.012;8.448;2024-03-17T15:27:34;48.57;;;6.80;;
8474;SDS011;4274;52.012;8.448;2024-03-17T15:30:00;50.07;;;7.20;;